KOGD/OGD METAR and TAF weather

Enter ICAO airport designator
Station Type Date Time Source
KOGD METAR 2022/01/19 20:53 UTC NOAA

KOGD 192053Z 29005KT 9SM FEW016 OVC060 02/M03 A3027 RMK AO2 SLP263 T00171033 53000


Station Type Date Time Source
KOGD Decoded METAR 2022/01/19 20:53 UTC NOAA

OGDEN-HINCKLEY AIRPORT, UT, United States (KOGD) 41-12N 112-01W 1353M
Jan 19, 2022 - 03:53 PM EST / 2022.01.19 2053 UTC
Wind: from the WNW (290 degrees) at 6 MPH (5 KT):0
Visibility: 9 mile(s):0
Sky conditions: overcast
Temperature: 35.1 F (1.7 C)
Dew Point: 26.1 F (-3.3 C)
Relative Humidity: 69%
Pressure (altimeter): 30.27 in. Hg (1025 hPa)
Pressure tendency: 0.00 inches (0.0 hPa) higher than three hours ago
ob: KOGD 192053Z 29005KT 9SM FEW016 OVC060 02/M03 A3027 RMK AO2 SLP263 T00171033 53000
cycle: 21

Station Type Date Time Source
KOGD TAF 2022/01/19 20:30 UTC NOAA

TAF
AMD KOGD 192029Z 1920/2018 29005KT 5SM HZ BKN015 OVC060
FM192130 30005KT P6SM BKN050 BKN150
FM200900 16006KT P6SM SCT035

Example: see airport list